Time;durP1;ratioP1;P1;durP2;ratioP2;P2;SDS_P1;SDS_P2;PMS_P1;PMS_P2;Temp;Humidity;BMP_temperature;BMP_pressure;BME280_temperature;BME280_humidity;BME280_pressure;Samples;Min_cycle;Max_cycle;Signal;HPM_P1;HPM_P2
2023/05/11 00:00:37;;;;;;;;;12.67;11.67;23.70;37.90;;;;;;111681;1237;48887;-68
2023/05/11 00:03:13;;;;;;;;;12.00;11.00;23.70;37.90;;;;;;111663;1236;45307;-67
2023/05/11 00:05:41;;;;;;;;;11.00;10.00;23.70;37.90;;;;;;111699;1240;56211;-68
2023/05/11 00:08:08;;;;;;;;;11.75;10.75;23.70;37.90;;;;;;111729;1235;54040;-69
2023/05/11 00:10:35;;;;;;;;;9.75;8.75;23.70;37.90;;;;;;111686;1239;50119;-70
2023/05/11 00:13:02;;;;;;;;;10.00;9.00;23.60;37.80;;;;;;111544;1237;48691;-69
2023/05/11 00:15:29;;;;;;;;;10.75;9.75;23.60;37.90;;;;;;111694;1237;46296;-67
2023/05/11 00:17:56;;;;;;;;;10.75;9.75;23.60;37.90;;;;;;111711;1238;56536;-67
2023/05/11 00:20:23;;;;;;;;;9.75;8.75;23.60;37.90;;;;;;111673;1238;53865;-68
2023/05/11 00:22:50;;;;;;;;;11.00;10.00;23.60;37.90;;;;;;111703;1239;49249;-67
2023/05/11 00:25:17;;;;;;;;;10.50;9.50;23.60;37.90;;;;;;111699;1235;49971;-67
2023/05/11 00:27:44;;;;;;;;;12.00;10.75;23.50;37.80;;;;;;111703;1240;45358;-67
2023/05/11 00:30:13;;;;;;;;;11.50;10.25;23.60;37.90;;;;;;111595;1237;56646;-67
2023/05/11 00:32:41;;;;;;;;;11.00;9.75;23.60;37.90;;;;;;111542;1238;53157;-68
2023/05/11 00:35:10;;;;;;;;;10.67;9.67;23.60;37.90;;;;;;111715;1237;49574;-68
2023/05/11 00:37:38;;;;;;;;;10.50;9.00;23.50;37.80;;;;;;111727;1235;49500;-68
2023/05/11 00:40:06;;;;;;;;;12.00;11.00;23.50;37.80;;;;;;111656;1240;45714;-67
2023/05/11 00:42:33;;;;;;;;;11.00;10.00;23.50;37.70;;;;;;111738;1239;55523;-68
2023/05/11 00:45:01;;;;;;;;;10.00;9.00;23.50;37.80;;;;;;111560;1238;54059;-67
2023/05/11 00:47:28;;;;;;;;;10.00;9.00;23.50;37.90;;;;;;111570;1240;49384;-67
2023/05/11 00:49:55;;;;;;;;;10.75;9.75;23.50;37.80;;;;;;111670;1242;49331;-68
2023/05/11 00:52:22;;;;;;;;;11.00;10.00;23.50;37.90;;;;;;111549;1238;46035;-68
2023/05/11 00:54:49;;;;;;;;;11.75;10.75;23.40;37.70;;;;;;111692;1236;56633;-67
2023/05/11 00:57:17;;;;;;;;;12.00;10.75;23.40;37.70;;;;;;111722;1240;53922;-67
2023/05/11 00:59:43;;;;;;;;;10.75;9.75;23.40;37.90;;;;;;111673;1240;49071;-68
2023/05/11 01:02:10;;;;;;;;;11.75;10.75;23.40;37.90;;;;;;111658;1237;49622;-67
2023/05/11 01:04:37;;;;;;;;;11.75;10.75;23.40;37.70;;;;;;111715;1241;45867;-67
2023/05/11 01:07:12;;;;;;;;;10.00;9.00;23.40;37.80;;;;;;111679;1235;56028;-67
2023/05/11 01:09:39;;;;;;;;;11.67;9.67;23.40;37.80;;;;;;111667;1235;53773;-68
2023/05/11 01:12:32;;;;;;;;;11.00;9.67;23.40;37.20;;;;;;111730;1240;50861;-67
2023/05/11 01:15:11;;;;;;;;;13.25;11.00;23.40;37.70;;;;;;111720;1236;49683;-67
2023/05/11 01:17:57;;;;;;;;;11.25;10.00;23.30;38.00;;;;;;111610;1240;46531;-67
2023/05/11 01:20:26;;;;;;;;;11.00;9.00;23.40;37.70;;;;;;111706;1240;55052;-68
2023/05/11 01:23:27;;;;;;;;;13.00;11.33;23.40;37.90;;;;;;111737;1237;54067;-66
2023/05/11 01:26:28;;;;;;;;;13.75;10.00;23.30;37.70;;;;;;111704;1235;49097;-67
2023/05/11 01:29:16;;;;;;;;;12.75;10.00;23.30;37.70;;;;;;111662;1245;49611;-67
2023/05/11 01:31:46;;;;;;;;;9.00;8.00;23.30;37.30;;;;;;111591;1236;45806;-68
2023/05/11 01:34:18;;;;;;;;;11.00;10.00;23.30;37.90;;;;;;111695;1239;55985;-68
2023/05/11 01:36:54;;;;;;;;;11.50;10.25;23.30;38.00;;;;;;111568;1237;54003;-68
2023/05/11 01:39:37;;;;;;;;;10.75;9.75;23.30;37.80;;;;;;111525;1237;49783;-67
2023/05/11 01:42:09;;;;;;;;;13.75;11.00;23.30;37.70;;;;;;111578;1243;49506;-68
2023/05/11 01:44:39;;;;;;;;;10.00;9.00;23.20;37.60;;;;;;111719;1239;45347;-68
2023/05/11 01:47:07;;;;;;;;;12.00;11.00;23.20;37.80;;;;;;111702;1240;56014;-68
2023/05/11 01:49:37;;;;;;;;;11.00;10.00;23.20;37.60;;;;;;111499;1240;54112;-68
2023/05/11 01:52:06;;;;;;;;;10.75;9.75;23.20;37.90;;;;;;111691;1240;50439;-68
2023/05/11 01:54:35;;;;;;;;;11.75;10.75;23.20;38.20;;;;;;111683;1240;49697;-68
2023/05/11 01:57:02;;;;;;;;;11.00;9.00;23.10;37.90;;;;;;111645;1241;45761;-68
2023/05/11 01:59:30;;;;;;;;;10.75;9.75;23.10;37.80;;;;;;111702;1237;55671;-67
2023/05/11 02:01:59;;;;;;;;;11.75;9.75;23.10;37.60;;;;;;111704;1240;53335;-67
2023/05/11 02:04:27;;;;;;;;;10.00;9.00;23.10;37.60;;;;;;111710;1238;49776;-68
2023/05/11 02:06:56;;;;;;;;;13.67;10.67;23.10;37.70;;;;;;111611;1238;48927;-69
2023/05/11 02:09:23;;;;;;;;;12.00;10.75;23.10;37.70;;;;;;111558;1237;45932;-67
2023/05/11 02:11:52;;;;;;;;;11.67;10.33;23.10;37.70;;;;;;111697;1240;56153;-68
2023/05/11 02:14:20;;;;;;;;;10.75;9.75;23.00;37.60;;;;;;111645;1237;54211;-67
2023/05/11 02:16:48;;;;;;;;;11.75;10.00;23.00;37.70;;;;;;111633;1240;50191;-68
2023/05/11 02:19:16;;;;;;;;;12.00;11.00;23.00;37.60;;;;;;111690;1240;49180;-66
2023/05/11 02:21:44;;;;;;;;;9.75;8.75;23.00;37.70;;;;;;111660;1235;45123;-67
2023/05/11 02:24:11;;;;;;;;;11.00;10.00;22.90;37.80;;;;;;111680;1241;55945;-67
2023/05/11 02:26:38;;;;;;;;;12.75;11.75;22.90;37.60;;;;;;111670;1240;54864;-67
2023/05/11 02:29:05;;;;;;;;;11.75;10.75;22.90;37.70;;;;;;111676;1241;49294;-68
2023/05/11 02:31:36;;;;;;;;;13.25;11.75;22.90;37.70;;;;;;111659;1235;50179;-67
2023/05/11 02:34:19;;;;;;;;;11.75;10.75;22.90;37.70;;;;;;111715;1237;45885;-67
2023/05/11 02:36:48;;;;;;;;;11.00;10.00;22.90;37.70;;;;;;111653;1241;55644;-68
2023/05/11 02:39:18;;;;;;;;;12.67;10.67;22.90;37.60;;;;;;111537;1242;54233;-67
2023/05/11 02:41:45;;;;;;;;;10.75;9.00;22.90;37.70;;;;;;111614;1240;48972;-67
2023/05/11 02:44:14;;;;;;;;;12.00;11.00;22.90;37.90;;;;;;111544;1237;49021;-68
2023/05/11 02:46:43;;;;;;;;;13.00;12.00;22.80;37.60;;;;;;111625;1241;45244;-68
2023/05/11 02:49:11;;;;;;;;;12.67;10.00;22.80;37.70;;;;;;111721;1235;55349;-69
2023/05/11 02:51:42;;;;;;;;;12.00;11.00;22.80;37.70;;;;;;111713;1235;54197;-67
2023/05/11 02:54:09;;;;;;;;;10.00;9.00;22.80;37.70;;;;;;111718;1237;48961;-66
2023/05/11 02:56:37;;;;;;;;;11.75;10.50;22.80;37.70;;;;;;111627;1237;50341;-67
2023/05/11 02:59:04;;;;;;;;;11.75;10.75;22.80;37.70;;;;;;111613;1238;45971;-67
2023/05/11 03:01:32;;;;;;;;;12.67;11.00;22.80;37.70;;;;;;111702;1235;55810;-66
2023/05/11 03:03:59;;;;;;;;;13.50;12.00;22.70;37.60;;;;;;111731;1235;53513;-67
2023/05/11 03:06:26;;;;;;;;;13.50;11.75;22.70;37.60;;;;;;111726;1240;49036;-67
2023/05/11 03:08:53;;;;;;;;;13.50;12.25;22.70;37.80;;;;;;111668;1237;50409;-67
2023/05/11 03:11:20;;;;;;;;;11.75;10.75;22.70;37.60;;;;;;111712;1240;46277;-67
2023/05/11 03:13:48;;;;;;;;;12.00;10.75;22.70;37.60;;;;;;111546;1241;56676;-68
2023/05/11 03:16:16;;;;;;;;;13.75;12.50;22.70;37.70;;;;;;111712;1238;54164;-68
2023/05/11 03:18:44;;;;;;;;;12.75;9.75;22.70;37.70;;;;;;111669;1235;49055;-66
2023/05/11 03:21:14;;;;;;;;;10.00;9.00;22.70;37.60;;;;;;111716;1237;49752;-66
2023/05/11 03:23:43;;;;;;;;;12.25;11.00;22.70;37.60;;;;;;111738;1235;45875;-67
2023/05/11 03:26:11;;;;;;;;;13.00;11.75;22.70;37.60;;;;;;111759;1239;54982;-67
2023/05/11 03:28:40;;;;;;;;;13.00;11.75;22.60;37.70;;;;;;111693;1239;53498;-67
2023/05/11 03:31:07;;;;;;;;;10.25;9.00;22.70;37.20;;;;;;111615;1237;49476;-67
2023/05/11 03:33:34;;;;;;;;;13.00;11.00;22.70;37.70;;;;;;111660;1240;49607;-68
2023/05/11 03:36:02;;;;;;;;;11.00;10.00;22.60;37.60;;;;;;111728;1235;46085;-69
2023/05/11 03:38:29;;;;;;;;;10.75;9.00;22.60;37.80;;;;;;111714;1237;55721;-68
2023/05/11 03:40:57;;;;;;;;;12.75;11.50;22.60;37.50;;;;;;111656;1238;53940;-67
2023/05/11 03:43:26;;;;;;;;;12.00;11.00;22.60;37.50;;;;;;111572;1238;50696;-68
2023/05/11 03:45:54;;;;;;;;;13.75;11.00;22.60;37.60;;;;;;111721;1235;49995;-68
2023/05/11 03:48:21;;;;;;;;;13.00;12.00;22.60;37.50;;;;;;111680;1237;46206;-68
2023/05/11 03:50:49;;;;;;;;;12.25;10.50;22.60;37.50;;;;;;111615;1237;55951;-67
2023/05/11 03:53:16;;;;;;;;;11.67;10.67;22.60;37.60;;;;;;111658;1238;54363;-68
2023/05/11 03:55:43;;;;;;;;;13.00;12.00;22.50;37.60;;;;;;112094;1235;49495;-66
2023/05/11 03:58:10;;;;;;;;;13.75;12.75;22.50;39.00;;;;;;111709;1235;49031;-67
2023/05/11 04:00:38;;;;;;;;;12.75;11.75;22.60;38.50;;;;;;111670;1240;46283;-66
2023/05/11 04:03:09;;;;;;;;;13.00;12.00;22.60;38.20;;;;;;111727;1241;55966;-67
2023/05/11 04:05:36;;;;;;;;;15.50;13.75;22.70;38.20;;;;;;111752;1235;54209;-69
2023/05/11 04:08:04;;;;;;;;;13.00;11.67;22.70;38.20;;;;;;111710;1240;50876;-69
2023/05/11 04:10:32;;;;;;;;;12.75;11.75;22.70;38.10;;;;;;111725;1240;48939;-69
2023/05/11 04:12:59;;;;;;;;;15.00;12.00;22.70;38.00;;;;;;111745;1235;45490;-68
2023/05/11 04:15:26;;;;;;;;;13.00;10.00;22.70;37.90;;;;;;111720;1237;55746;-69
2023/05/11 04:17:53;;;;;;;;;13.00;11.00;22.70;37.90;;;;;;111746;1238;53426;-69
2023/05/11 04:20:20;;;;;;;;;14.25;11.50;22.70;38.00;;;;;;111656;1237;49927;-69
2023/05/11 04:22:47;;;;;;;;;14.75;12.00;22.80;37.90;;;;;;111698;1239;50164;-69
2023/05/11 04:25:14;;;;;;;;;14.25;12.25;22.70;37.80;;;;;;111728;1239;46062;-69
2023/05/11 04:27:41;;;;;;;;;12.00;10.00;22.70;37.90;;;;;;111725;1236;55381;-69
2023/05/11 04:30:08;;;;;;;;;13.00;12.00;22.70;37.70;;;;;;111689;1238;53937;-68
2023/05/11 04:32:35;;;;;;;;;13.00;12.00;22.80;38.00;;;;;;111549;1238;48982;-68
2023/05/11 04:35:02;;;;;;;;;16.00;13.00;22.70;37.70;;;;;;111657;1240;49362;-68
2023/05/11 04:37:29;;;;;;;;;12.75;11.75;22.70;37.80;;;;;;111562;1237;46551;-68
2023/05/11 04:39:56;;;;;;;;;13.25;12.25;22.80;37.70;;;;;;111692;1240;56727;-68
2023/05/11 04:42:23;;;;;;;;;13.00;11.75;22.80;37.70;;;;;;111708;1239;54143;-68
2023/05/11 04:44:53;;;;;;;;;11.50;10.00;22.70;37.60;;;;;;111694;1235;49829;-66
2023/05/11 04:47:20;;;;;;;;;13.00;12.00;22.70;37.70;;;;;;111684;1238;49677;-70
2023/05/11 04:49:47;;;;;;;;;13.00;11.00;22.80;37.70;;;;;;111774;1235;45114;-70
2023/05/11 04:52:14;;;;;;;;;16.50;13.00;22.70;37.60;;;;;;111799;1239;55865;-70
2023/05/11 04:54:41;;;;;;;;;14.00;12.33;22.70;37.60;;;;;;111480;1238;53899;-73
2023/05/11 04:57:08;;;;;;;;;14.00;11.33;22.70;37.60;;;;;;111741;1235;49665;-72
2023/05/11 04:59:35;;;;;;;;;12.75;11.75;22.80;37.90;;;;;;111693;1238;49966;-72
2023/05/11 05:02:03;;;;;;;;;12.50;11.75;22.80;37.80;;;;;;111666;1242;46522;-72
2023/05/11 05:04:30;;;;;;;;;13.00;12.00;22.80;37.70;;;;;;111566;1240;55746;-72
2023/05/11 05:06:57;;;;;;;;;13.50;12.50;22.80;37.60;;;;;;111564;1247;53824;-69
2023/05/11 05:09:24;;;;;;;;;13.25;10.00;22.80;37.70;;;;;;111625;1237;50962;-75
2023/05/11 05:11:51;;;;;;;;;12.00;11.00;22.80;37.80;;;;;;111837;1235;48863;-73
2023/05/11 05:14:18;;;;;;;;;15.75;13.75;22.70;38.70;;;;;;111957;1237;45900;-74
2023/05/11 05:16:45;;;;;;;;;19.50;16.00;22.80;38.90;;;;;;111890;1235;56477;-70
2023/05/11 05:19:11;;;;;;;;;22.00;18.50;22.70;39.60;;;;;;111643;1240;54254;-71
2023/05/11 05:21:39;;;;;;;;;30.00;18.00;22.80;39.80;;;;;;111730;1240;50152;-71
2023/05/11 05:24:09;;;;;;;;;22.00;17.25;22.80;39.90;;;;;;111680;1238;50352;-75
2023/05/11 05:26:37;;;;;;;;;22.25;20.00;22.80;40.40;;;;;;111933;1235;45713;-69
2023/05/11 05:29:05;;;;;;;;;30.00;21.00;22.80;41.10;;;;;;111769;1235;55615;-69
2023/05/11 05:31:32;;;;;;;;;27.50;21.50;22.90;41.50;;;;;;111601;1237;53813;-67
2023/05/11 05:33:59;;;;;;;;;22.00;20.33;22.90;42.20;;;;;;111657;1241;49236;-66
2023/05/11 05:36:26;;;;;;;;;31.25;20.00;22.90;42.40;;;;;;111521;1235;49540;-65
2023/05/11 05:38:53;;;;;;;;;25.75;24.00;23.00;42.60;;;;;;111743;1235;45611;-66
2023/05/11 05:41:21;;;;;;;;;23.75;19.00;23.00;42.30;;;;;;111822;1237;54925;-68
2023/05/11 05:43:48;;;;;;;;;28.75;20.75;23.10;42.70;;;;;;111807;1235;53508;-71
2023/05/11 05:46:16;;;;;;;;;23.75;19.50;23.10;42.90;;;;;;112100;1235;49104;-66
2023/05/11 05:48:43;;;;;;;;;25.00;21.00;23.20;42.40;;;;;;111802;1240;49773;-64
2023/05/11 05:51:10;;;;;;;;;23.00;18.75;23.30;42.40;;;;;;111717;1237;46508;-64
2023/05/11 05:53:37;;;;;;;;;25.33;20.67;23.30;42.50;;;;;;111678;1235;56647;-62
2023/05/11 05:56:05;;;;;;;;;25.67;19.00;23.30;42.70;;;;;;111524;1237;53772;-65
2023/05/11 05:58:32;;;;;;;;;18.75;16.50;23.40;42.70;;;;;;111607;1237;50428;-64
2023/05/11 06:00:59;;;;;;;;;26.33;20.33;23.40;42.70;;;;;;111625;1237;49222;-64
2023/05/11 06:03:26;;;;;;;;;19.75;18.75;23.40;42.80;;;;;;111663;1240;45864;-66
2023/05/11 06:05:53;;;;;;;;;21.00;17.00;23.40;42.80;;;;;;111794;1235;55628;-67
2023/05/11 06:08:20;;;;;;;;;23.00;19.00;23.50;43.40;;;;;;111765;1235;53333;-65
2023/05/11 06:10:47;;;;;;;;;24.67;19.00;23.50;43.20;;;;;;111589;1237;49925;-69
2023/05/11 06:13:14;;;;;;;;;23.75;20.75;23.60;43.20;;;;;;111657;1237;50449;-67
2023/05/11 06:15:41;;;;;;;;;22.00;18.00;23.60;43.30;;;;;;111750;1235;46079;-67
2023/05/11 06:18:08;;;;;;;;;20.67;19.00;23.60;43.20;;;;;;111834;1240;56336;-68
2023/05/11 06:20:35;;;;;;;;;18.75;17.50;23.70;43.10;;;;;;111700;1240;54631;-68
2023/05/11 06:23:02;;;;;;;;;22.75;21.75;23.70;42.80;;;;;;111755;1239;49136;-67
2023/05/11 06:25:29;;;;;;;;;22.25;18.25;23.70;42.70;;;;;;111585;1241;50711;-67
2023/05/11 06:27:55;;;;;;;;;22.50;18.75;23.80;42.80;;;;;;111659;1239;46823;-67
2023/05/11 06:30:22;;;;;;;;;22.33;21.33;23.80;42.80;;;;;;111709;1240;55296;-68
2023/05/11 06:32:49;;;;;;;;;24.00;19.00;23.90;42.70;;;;;;111872;1237;54373;-74
2023/05/11 06:35:16;;;;;;;;;17.75;16.75;23.90;42.70;;;;;;112125;1236;49302;-65
2023/05/11 06:37:43;;;;;;;;;21.00;19.50;23.90;42.70;;;;;;111880;1240;49514;-64
2023/05/11 06:40:10;;;;;;;;;20.75;18.00;24.00;42.50;;;;;;111850;1239;46458;-66
2023/05/11 06:42:37;;;;;;;;;26.50;22.75;24.10;42.30;;;;;;111718;1235;55871;-63
2023/05/11 06:45:05;;;;;;;;;24.50;19.75;24.20;42.60;;;;;;111971;1238;53932;-65
2023/05/11 06:47:32;;;;;;;;;19.25;16.25;24.20;42.20;;;;;;111821;1235;50249;-66
2023/05/11 06:49:59;;;;;;;;;22.67;17.00;24.30;42.40;;;;;;111827;1235;49024;-67
2023/05/11 06:52:26;;;;;;;;;19.00;17.00;24.40;42.40;;;;;;111782;1240;46940;-65
2023/05/11 06:54:53;;;;;;;;;23.25;16.75;24.30;42.40;;;;;;112012;1238;55905;-65
2023/05/11 06:57:20;;;;;;;;;20.50;16.25;24.40;42.70;;;;;;111879;1237;54713;-63
2023/05/11 06:59:47;;;;;;;;;16.50;15.00;24.40;42.30;;;;;;111826;1237;50465;-70
2023/05/11 07:02:14;;;;;;;;;18.67;15.67;24.40;42.30;;;;;;111824;1237;49351;-68
2023/05/11 07:04:41;;;;;;;;;19.00;17.00;24.50;42.30;;;;;;112077;1237;45971;-68
2023/05/11 07:07:10;;;;;;;;;15.00;14.00;24.60;42.80;;;;;;111802;1235;56071;-65
2023/05/11 07:09:40;;;;;;;;;20.00;19.00;24.60;42.10;;;;;;111760;1237;53984;-64
2023/05/11 07:12:07;;;;;;;;;20.50;17.00;24.60;42.10;;;;;;111791;1235;49702;-64
2023/05/11 07:14:33;;;;;;;;;16.75;15.75;24.60;42.00;;;;;;112089;1235;50642;-66
2023/05/11 07:17:00;;;;;;;;;18.50;15.00;24.70;41.90;;;;;;111707;1237;45711;-66
2023/05/11 07:19:27;;;;;;;;;17.25;14.00;24.80;42.20;;;;;;111755;1235;56039;-65
2023/05/11 07:21:55;;;;;;;;;20.00;15.33;24.80;42.10;;;;;;111796;1237;53574;-65
2023/05/11 07:24:22;;;;;;;;;15.75;13.00;24.80;41.90;;;;;;111747;1239;49128;-66
2023/05/11 07:26:50;;;;;;;;;20.25;18.00;24.90;42.00;;;;;;111655;1241;49065;-67
2023/05/11 07:29:17;;;;;;;;;17.00;14.00;25.00;41.70;;;;;;111789;1240;46242;-66
2023/05/11 07:31:44;;;;;;;;;18.00;17.00;25.00;41.60;;;;;;111746;1237;56047;-65
2023/05/11 07:34:11;;;;;;;;;22.75;19.00;25.00;42.00;;;;;;111779;1240;54308;-66
2023/05/11 07:36:38;;;;;;;;;19.00;17.00;25.00;42.10;;;;;;111730;1235;49120;-65
2023/05/11 07:39:05;;;;;;;;;20.75;16.50;25.00;42.00;;;;;;111671;1237;49218;-65
2023/05/11 07:41:32;;;;;;;;;25.25;18.00;25.00;42.20;;;;;;111675;1240;45542;-65
2023/05/11 07:44:00;;;;;;;;;20.25;16.75;25.00;42.50;;;;;;111825;1235;55351;-67
2023/05/11 07:46:27;;;;;;;;;18.00;17.00;25.00;42.70;;;;;;111844;1238;54007;-64
2023/05/11 07:48:54;;;;;;;;;17.75;16.50;25.00;42.90;;;;;;111675;1239;50500;-65
2023/05/11 07:51:21;;;;;;;;;17.75;16.25;25.10;42.70;;;;;;111701;1240;49323;-67
2023/05/11 07:53:48;;;;;;;;;20.00;18.75;25.10;42.80;;;;;;111730;1235;46875;-65
2023/05/11 07:56:15;;;;;;;;;18.00;16.00;25.10;42.90;;;;;;112163;1235;56654;-68
2023/05/11 07:58:42;;;;;;;;;17.25;16.00;25.10;42.90;;;;;;111732;1235;53513;-68
2023/05/11 08:01:09;;;;;;;;;19.00;17.00;25.20;42.80;;;;;;111735;1239;49477;-65
2023/05/11 08:03:36;;;;;;;;;20.33;16.00;25.20;41.40;;;;;;111690;1244;49630;-66
2023/05/11 08:06:04;;;;;;;;;20.00;17.75;25.20;40.10;;;;;;111701;1237;45575;-65
2023/05/11 08:08:31;;;;;;;;;17.00;16.00;25.20;40.30;;;;;;111718;1239;55835;-66
2023/05/11 08:11:00;;;;;;;;;18.67;16.33;25.20;41.20;;;;;;111646;1238;54948;-70
2023/05/11 08:13:27;;;;;;;;;19.75;17.75;25.20;41.00;;;;;;111678;1240;49775;-69
2023/05/11 08:15:54;;;;;;;;;20.25;18.00;25.20;41.20;;;;;;111719;1239;49635;-68
2023/05/11 08:18:21;;;;;;;;;19.00;17.00;25.10;41.00;;;;;;111722;1235;45646;-67
2023/05/11 08:20:48;;;;;;;;;19.25;17.00;25.10;41.30;;;;;;111759;1238;55290;-69
2023/05/11 08:23:17;;;;;;;;;19.00;18.00;25.10;40.20;;;;;;111682;1235;54289;-67
2023/05/11 08:25:51;;;;;;;;;22.00;18.00;25.10;40.50;;;;;;111751;1240;49771;-67
2023/05/11 08:28:19;;;;;;;;;23.25;19.25;25.10;40.90;;;;;;111687;1240;48857;-66
2023/05/11 08:30:54;;;;;;;;;21.25;17.25;25.10;40.60;;;;;;111865;1238;45522;-66
2023/05/11 08:33:22;;;;;;;;;17.67;15.00;25.20;40.60;;;;;;111690;1240;55794;-66
2023/05/11 08:35:49;;;;;;;;;16.00;15.00;25.20;41.30;;;;;;111715;1241;54325;-68
2023/05/11 08:38:17;;;;;;;;;19.75;16.75;25.30;41.50;;;;;;111658;1241;49801;-66
2023/05/11 08:40:47;;;;;;;;;16.67;15.67;25.30;41.90;;;;;;111664;1238;49662;-65
2023/05/11 08:43:15;;;;;;;;;17.50;16.25;25.30;41.80;;;;;;111689;1238;45566;-68
2023/05/11 08:45:46;;;;;;;;;19.33;17.00;25.30;42.00;;;;;;111739;1240;56072;-66
2023/05/11 08:48:17;;;;;;;;;18.50;17.50;25.30;42.20;;;;;;111706;1240;54399;-70
2023/05/11 08:50:44;;;;;;;;;18.00;15.50;25.40;42.10;;;;;;111715;1237;49544;-68
2023/05/11 08:53:12;;;;;;;;;16.25;14.75;25.40;42.10;;;;;;111720;1238;50056;-67
2023/05/11 08:55:40;;;;;;;;;17.00;16.00;25.50;41.80;;;;;;111704;1235;45355;-67
2023/05/11 08:58:07;;;;;;;;;18.00;17.00;25.50;42.10;;;;;;111689;1239;55672;-66
2023/05/11 09:00:35;;;;;;;;;18.25;16.25;25.50;41.70;;;;;;111191;1241;636355;-66
2023/05/11 09:03:03;;;;;;;;;16.50;15.50;25.50;42.20;;;;;;111565;1238;49142;-68
2023/05/11 09:05:31;;;;;;;;;34.25;30.00;25.50;42.30;;;;;;111691;1240;48957;-68
2023/05/11 09:08:03;;;;;;;;;52.00;35.00;25.60;42.90;;;;;;111295;1240;45567;-69
2023/05/11 09:10:30;;;;;;;;;37.25;27.00;25.60;44.30;;;;;;111584;1235;55325;-69
2023/05/11 09:12:57;;;;;;;;;39.50;28.75;25.60;43.20;;;;;;111681;1241;54027;-67
2023/05/11 09:15:24;;;;;;;;;38.67;28.67;25.50;43.70;;;;;;111682;1240;49675;-67
2023/05/11 09:17:50;;;;;;;;;39.00;29.00;25.50;43.60;;;;;;111706;1235;48970;-65
2023/05/11 09:20:26;;;;;;;;;36.25;31.00;25.60;43.50;;;;;;111699;1235;46662;-65
2023/05/11 09:22:54;;;;;;;;;42.00;29.75;25.70;43.30;;;;;;111728;1240;56435;-65
2023/05/11 09:25:22;;;;;;;;;37.00;28.50;25.70;43.00;;;;;;111729;1241;54082;-64
2023/05/11 09:27:50;;;;;;;;;41.50;30.25;25.80;42.90;;;;;;111703;1236;49249;-65
2023/05/11 09:30:21;;;;;;;;;32.00;25.25;25.90;42.70;;;;;;111685;1235;49862;-66
2023/05/11 09:32:51;;;;;;;;;31.50;24.75;25.90;42.50;;;;;;111727;1240;46923;-65
2023/05/11 09:35:25;;;;;;;;;29.00;25.75;25.90;42.40;;;;;;111722;1236;55521;-65
2023/05/11 09:37:57;;;;;;;;;31.00;25.75;26.00;42.30;;;;;;111654;1235;54368;-65
2023/05/11 09:40:29;;;;;;;;;36.00;27.25;26.00;42.10;;;;;;111666;1235;50304;-66
2023/05/11 09:42:57;;;;;;;;;40.50;27.00;26.00;41.90;;;;;;111656;1239;49663;-63
2023/05/11 09:45:41;;;;;;;;;27.25;24.50;26.10;41.90;;;;;;111691;1235;45919;-61
2023/05/11 09:48:17;;;;;;;;;30.50;23.00;26.10;41.90;;;;;;111691;1237;55056;-61
2023/05/11 09:50:46;;;;;;;;;22.67;20.33;26.20;41.70;;;;;;111684;1235;54007;-60
2023/05/11 09:53:13;;;;;;;;;25.25;21.50;26.20;41.50;;;;;;111672;1237;48959;-67
2023/05/11 09:55:51;;;;;;;;;26.50;23.75;26.20;41.70;;;;;;111671;1235;49663;-65
2023/05/11 09:58:18;;;;;;;;;25.75;20.25;26.30;41.40;;;;;;111684;1241;46237;-65
2023/05/11 10:00:52;;;;;;;;;29.75;25.75;26.30;41.20;;;;;;111659;1240;56556;-65
2023/05/11 10:03:19;;;;;;;;;32.25;27.25;26.30;41.20;;;;;;111731;1235;53265;-65
2023/05/11 10:05:59;;;;;;;;;30.33;24.33;26.30;41.10;;;;;;111653;1240;49516;-64
2023/05/11 10:08:33;;;;;;;;;29.25;26.75;26.30;41.10;;;;;;111626;1240;49411;-64
2023/05/11 10:11:04;;;;;;;;;30.00;23.67;26.30;40.90;;;;;;111679;1240;45337;-65
2023/05/11 10:13:33;;;;;;;;;26.00;23.75;26.40;41.00;;;;;;111630;1238;55639;-64
2023/05/11 10:16:03;;;;;;;;;26.25;24.75;26.40;40.90;;;;;;111613;1240;54126;-65
2023/05/11 10:18:33;;;;;;;;;26.00;22.75;26.40;40.90;;;;;;111508;1237;49448;-64
2023/05/11 10:21:00;;;;;;;;;28.25;22.25;26.50;41.00;;;;;;111658;1240;49487;-65
2023/05/11 10:23:30;;;;;;;;;27.33;23.67;26.40;40.70;;;;;;111682;1239;46402;-65
2023/05/11 10:25:57;;;;;;;;;27.25;23.50;26.50;40.70;;;;;;111581;1241;56517;-66
2023/05/11 10:28:24;;;;;;;;;25.33;22.00;26.50;40.70;;;;;;111647;1235;53941;-65
2023/05/11 10:30:51;;;;;;;;;26.25;22.75;26.50;40.60;;;;;;111606;1235;49314;-65
2023/05/11 10:33:18;;;;;;;;;23.00;19.25;26.50;40.50;;;;;;111674;1240;49829;-65
2023/05/11 10:35:45;;;;;;;;;27.50;21.00;26.50;40.50;;;;;;111686;1241;46188;-65
2023/05/11 10:38:13;;;;;;;;;19.50;18.50;26.60;40.50;;;;;;111547;1237;56053;-66
2023/05/11 10:40:42;;;;;;;;;23.33;16.00;26.60;40.50;;;;;;111597;1237;53332;-65
2023/05/11 10:43:18;;;;;;;;;19.50;18.25;26.60;40.10;;;;;;111675;1235;49578;-66
2023/05/11 10:46:15;;;;;;;;;20.75;17.00;26.60;40.10;;;;;;111676;1239;49267;-67
2023/05/11 10:48:54;;;;;;;;;22.00;19.00;26.50;40.90;;;;;;111691;1240;46854;-66
2023/05/11 10:51:30;;;;;;;;;20.33;17.67;26.60;40.70;;;;;;111705;1241;55064;-66
2023/05/11 10:53:58;;;;;;;;;22.00;18.00;26.60;40.90;;;;;;111676;1237;54063;-65
2023/05/11 10:56:32;;;;;;;;;18.50;16.00;26.60;40.80;;;;;;111976;1235;49637;-67
2023/05/11 10:59:26;;;;;;;;;18.25;15.75;26.60;41.00;;;;;;111673;1237;49534;-68
2023/05/11 11:01:57;;;;;;;;;20.00;19.00;26.70;41.30;;;;;;111719;1237;45559;-66
2023/05/11 11:04:24;;;;;;;;;17.75;16.50;26.80;41.00;;;;;;111740;1237;55680;-66
2023/05/11 11:07:05;;;;;;;;;18.67;16.67;26.80;41.40;;;;;;111570;1237;53581;-65
2023/05/11 11:09:56;;;;;;;;;19.50;17.50;26.80;41.20;;;;;;111712;1241;49967;-63
2023/05/11 11:12:26;;;;;;;;;22.50;16.25;26.90;41.20;;;;;;111289;1242;49132;-66
2023/05/11 11:14:53;;;;;;;;;25.67;20.67;26.90;41.30;;;;;;111678;1235;46221;-65
2023/05/11 11:17:30;;;;;;;;;19.75;18.00;26.90;41.50;;;;;;111758;1235;55964;-66
2023/05/11 11:20:00;;;;;;;;;21.00;19.25;27.00;41.30;;;;;;111750;1235;54058;-67
2023/05/11 11:22:47;;;;;;;;;17.25;16.00;27.00;41.20;;;;;;111721;1235;49823;-65
2023/05/11 11:25:35;;;;;;;;;19.00;16.00;27.00;41.30;;;;;;111772;1235;49726;-66
2023/05/11 11:28:02;;;;;;;;;19.75;15.00;27.10;41.80;;;;;;111686;1240;45244;-62
2023/05/11 11:30:29;;;;;;;;;20.75;16.50;27.10;40.90;;;;;;111605;1235;55846;-63
2023/05/11 11:33:08;;;;;;;;;21.00;18.50;27.20;41.10;;;;;;111723;1235;54087;-67
2023/05/11 11:35:38;;;;;;;;;18.67;17.67;27.20;41.30;;;;;;111585;1235;48933;-63
2023/05/11 11:38:13;;;;;;;;;20.00;17.25;27.20;41.30;;;;;;111658;1241;50302;-63
2023/05/11 11:40:51;;;;;;;;;18.50;17.75;27.20;41.40;;;;;;111714;1237;45325;-65
2023/05/11 11:43:20;;;;;;;;;20.33;17.00;27.20;41.40;;;;;;111733;1235;55461;-67
2023/05/11 11:46:00;;;;;;;;;16.00;14.00;27.20;41.40;;;;;;111686;1235;53889;-72
2023/05/11 11:48:30;;;;;;;;;17.50;13.50;27.20;41.30;;;;;;111713;1235;49095;-72
2023/05/11 11:51:06;;;;;;;;;17.33;16.33;27.20;41.10;;;;;;111702;1235;50160;-72
2023/05/11 11:53:40;;;;;;;;;19.50;15.75;27.20;41.20;;;;;;111600;1240;45430;-62
2023/05/11 11:56:13;;;;;;;;;18.00;14.00;27.20;41.20;;;;;;111674;1240;56649;-63
2023/05/11 11:58:40;;;;;;;;;16.50;14.00;27.30;41.40;;;;;;111626;1235;53535;-64
2023/05/11 12:01:07;;;;;;;;;16.00;15.00;27.30;41.10;;;;;;111662;1240;49540;-64
2023/05/11 12:03:35;;;;;;;;;16.00;14.00;27.30;41.10;;;;;;111652;1235;50479;-68
2023/05/11 12:06:06;;;;;;;;;16.00;15.00;27.30;41.10;;;;;;111664;1240;45586;-70
2023/05/11 12:08:34;;;;;;;;;19.00;16.75;27.30;41.40;;;;;;111740;1235;55823;-70
2023/05/11 12:11:02;;;;;;;;;16.00;14.00;27.30;41.20;;;;;;111747;1240;54993;-72
2023/05/11 12:13:30;;;;;;;;;16.00;15.00;27.30;41.20;;;;;;111692;1240;50119;-66
2023/05/11 12:16:17;;;;;;;;;19.25;15.50;27.30;41.40;;;;;;111662;1240;50143;-69
2023/05/11 12:18:52;;;;;;;;;14.00;13.00;27.30;41.20;;;;;;111656;1240;46844;-69
2023/05/11 12:21:20;;;;;;;;;17.33;16.33;27.30;41.30;;;;;;111701;1235;55997;-65
2023/05/11 12:23:54;;;;;;;;;16.50;14.00;27.30;41.20;;;;;;111723;1240;54705;-64
2023/05/11 12:26:23;;;;;;;;;16.75;15.75;27.30;41.20;;;;;;111689;1240;49340;-66
2023/05/11 12:28:51;;;;;;;;;17.67;15.00;27.40;41.40;;;;;;111672;1240;48803;-66